createdAt,value
2022-08-24T00:01:20.817Z,98.70
2022-08-24T00:03:54.285Z,98.80
2022-08-24T00:06:23.548Z,98.80
2022-08-24T00:08:52.046Z,98.80
2022-08-24T00:11:19.785Z,98.80
2022-08-24T00:13:48.120Z,98.80
2022-08-24T00:16:19.034Z,98.90
2022-08-24T00:18:46.847Z,99.00
2022-08-24T00:21:13.894Z,99.00
2022-08-24T00:23:40.841Z,99.00
2022-08-24T00:26:08.329Z,99.00
2022-08-24T00:28:36.015Z,99.30
2022-08-24T00:31:03.544Z,99.10
2022-08-24T00:33:32.156Z,99.10
2022-08-24T00:36:02.071Z,99.10
2022-08-24T00:38:29.743Z,99.20
2022-08-24T00:40:56.959Z,99.30
2022-08-24T00:43:26.330Z,99.40
2022-08-24T00:46:18.723Z,99.40
2022-08-24T00:48:49.419Z,99.50
2022-08-24T00:51:27.960Z,99.50
2022-08-24T00:54:01.349Z,99.50
2022-08-24T00:56:41.874Z,99.60
2022-08-24T00:59:13.814Z,99.70
2022-08-24T01:01:42.227Z,99.70
2022-08-24T01:04:17.731Z,99.60
2022-08-24T01:06:49.264Z,99.70
2022-08-24T01:09:16.779Z,99.70
2022-08-24T01:11:43.932Z,99.70
2022-08-24T01:14:13.639Z,99.70
2022-08-24T01:17:02.159Z,99.80
2022-08-24T01:19:50.540Z,99.90
2022-08-24T01:22:32.620Z,99.90
2022-08-24T01:25:00.686Z,99.90
2022-08-24T01:27:28.340Z,99.90
2022-08-24T01:29:59.931Z,99.90
2022-08-24T01:32:32.090Z,99.90
2022-08-24T01:35:02.092Z,99.90
2022-08-24T01:37:29.990Z,99.90
2022-08-24T01:39:59.222Z,99.90
2022-08-24T01:42:29.952Z,99.90
2022-08-24T01:44:59.967Z,99.90
2022-08-24T01:47:27.049Z,99.90
2022-08-24T01:49:56.527Z,99.90
2022-08-24T01:52:43.425Z,99.90
2022-08-24T01:55:19.919Z,99.90
2022-08-24T01:57:52.543Z,99.90
2022-08-24T02:00:19.526Z,99.90
2022-08-24T02:02:46.768Z,99.90
2022-08-24T02:05:17.241Z,99.90
2022-08-24T02:07:44.530Z,99.90
2022-08-24T02:10:15.535Z,99.90
2022-08-24T02:12:47.110Z,99.90
2022-08-24T02:15:16.258Z,99.90
2022-08-24T02:17:43.414Z,99.90
2022-08-24T02:20:10.612Z,99.90
2022-08-24T02:22:37.424Z,99.90
2022-08-24T02:25:04.800Z,99.90
2022-08-24T02:27:34.148Z,99.90
2022-08-24T02:30:04.240Z,99.90
2022-08-24T02:32:31.026Z,99.90
2022-08-24T02:35:01.056Z,99.90
2022-08-24T02:37:30.346Z,99.90
2022-08-24T02:39:57.264Z,99.90
2022-08-24T02:42:24.089Z,99.90
2022-08-24T02:44:51.024Z,99.90
2022-08-24T02:47:23.318Z,99.90
2022-08-24T02:50:07.981Z,99.90
2022-08-24T02:52:36.207Z,99.90
2022-08-24T02:55:03.380Z,99.90
2022-08-24T02:57:30.235Z,99.90
2022-08-24T02:59:59.885Z,99.90
2022-08-24T03:02:27.116Z,99.90
2022-08-24T03:04:56.975Z,99.90
2022-08-24T03:07:23.790Z,99.90
2022-08-24T03:09:50.580Z,99.90
2022-08-24T03:12:18.319Z,99.90
2022-08-24T03:14:45.368Z,99.90
2022-08-24T03:17:12.232Z,99.90
2022-08-24T03:19:41.692Z,99.90
2022-08-24T03:22:14.023Z,99.90
2022-08-24T03:24:40.969Z,99.90
2022-08-24T03:27:11.354Z,99.90
2022-08-24T03:29:41.356Z,99.90
2022-08-24T03:32:08.290Z,99.90
2022-08-24T03:34:36.178Z,99.90
2022-08-24T03:37:05.677Z,99.90
2022-08-24T03:39:32.420Z,99.90
2022-08-24T03:42:06.202Z,99.90
2022-08-24T03:44:38.651Z,99.90
2022-08-24T03:47:10.611Z,99.90
2022-08-24T03:49:38.558Z,99.90
2022-08-24T03:52:06.946Z,99.90
2022-08-24T03:54:36.918Z,99.90
2022-08-24T03:57:06.379Z,99.90
2022-08-24T03:59:33.350Z,99.90
2022-08-24T04:02:04.793Z,99.90
2022-08-24T04:04:37.089Z,99.90
2022-08-24T04:07:04.405Z,99.90
2022-08-24T04:09:31.479Z,99.90
2022-08-24T04:11:58.446Z,99.90
2022-08-24T04:14:27.397Z,99.90
2022-08-24T04:16:57.548Z,99.90
2022-08-24T04:19:25.474Z,99.90
2022-08-24T04:21:55.540Z,99.90
2022-08-24T04:24:26.033Z,99.90
2022-08-24T04:26:55.457Z,99.90
2022-08-24T04:29:25.565Z,99.90
2022-08-24T04:31:53.569Z,99.90
2022-08-24T04:34:20.552Z,99.90
2022-08-24T04:36:47.472Z,99.90
2022-08-24T04:39:14.910Z,99.90
2022-08-24T04:41:42.572Z,99.90
2022-08-24T04:44:12.330Z,99.90
2022-08-24T04:46:41.785Z,99.90
2022-08-24T04:49:11.825Z,99.90
2022-08-24T04:51:38.804Z,99.90
2022-08-24T04:54:09.038Z,99.90
2022-08-24T04:56:36.620Z,99.90
2022-08-24T04:59:09.137Z,99.90
2022-08-24T05:01:42.258Z,99.90
2022-08-24T05:04:14.872Z,99.90
2022-08-24T05:06:44.342Z,99.90
2022-08-24T05:09:11.368Z,99.90
2022-08-24T05:11:40.828Z,99.90
2022-08-24T05:14:11.200Z,99.90
2022-08-24T05:16:39.137Z,99.90
2022-08-24T05:19:12.402Z,99.90
2022-08-24T05:21:44.352Z,99.90
2022-08-24T05:24:16.619Z,99.90
2022-08-24T05:26:46.053Z,99.90
2022-08-24T05:29:12.993Z,99.90
2022-08-24T05:31:44.335Z,99.90
2022-08-24T05:34:11.379Z,99.90
2022-08-24T05:36:45.490Z,99.90
2022-08-24T05:39:14.175Z,99.90
2022-08-24T05:41:44.521Z,99.90
2022-08-24T05:44:18.196Z,99.90
2022-08-24T05:46:45.694Z,99.90
2022-08-24T05:49:12.901Z,99.90
2022-08-24T05:51:40.570Z,99.90
2022-08-24T05:54:07.726Z,99.90
2022-08-24T05:56:37.018Z,99.90
2022-08-24T05:59:06.330Z,99.90
2022-08-24T06:01:35.658Z,99.90
2022-08-24T06:04:02.917Z,99.90
2022-08-24T06:06:32.512Z,99.90
2022-08-24T06:09:00.454Z,99.90
2022-08-24T06:11:34.680Z,99.90
2022-08-24T06:14:13.858Z,99.90
2022-08-24T06:16:45.365Z,99.90
2022-08-24T06:19:17.073Z,99.90
2022-08-24T06:21:46.769Z,99.90
2022-08-24T06:24:17.139Z,99.90
2022-08-24T06:27:03.675Z,99.90
2022-08-24T06:29:30.869Z,99.90
2022-08-24T06:31:59.957Z,99.90
2022-08-24T06:34:29.116Z,99.90
2022-08-24T06:36:58.073Z,99.90
2022-08-24T06:39:33.263Z,99.90
2022-08-24T06:42:00.213Z,99.90
2022-08-24T06:44:27.495Z,99.90
2022-08-24T06:46:59.342Z,99.90
2022-08-24T06:49:29.186Z,99.90
2022-08-24T06:51:56.744Z,99.90
2022-08-24T06:54:26.264Z,99.90
2022-08-24T06:56:55.415Z,99.90
2022-08-24T06:59:22.667Z,99.90
2022-08-24T07:01:53.583Z,99.90
2022-08-24T07:04:27.570Z,99.90
2022-08-24T07:06:55.546Z,99.90
2022-08-24T07:09:25.013Z,99.90
2022-08-24T07:11:55.546Z,99.90
2022-08-24T07:14:25.337Z,99.90
2022-08-24T07:16:55.473Z,99.80
2022-08-24T07:19:22.928Z,99.60
2022-08-24T07:21:56.665Z,99.30
2022-08-24T07:24:26.321Z,99.30
2022-08-24T07:26:56.367Z,99.00
2022-08-24T07:29:46.965Z,98.90
2022-08-24T07:32:15.331Z,98.70
2022-08-24T07:34:42.345Z,98.60
2022-08-24T07:37:11.296Z,98.50
2022-08-24T07:39:38.538Z,98.40
2022-08-24T07:42:13.791Z,98.20
2022-08-24T07:44:43.459Z,97.90
2022-08-24T07:47:36.393Z,97.80
2022-08-24T07:49:59.511Z,97.70
2022-08-24T07:52:27.948Z,97.40
2022-08-24T07:54:54.931Z,97.30
2022-08-24T07:57:21.707Z,96.90
2022-08-24T07:59:48.601Z,96.70
2022-08-24T08:02:18.442Z,96.60
2022-08-24T08:04:47.553Z,96.40
2022-08-24T08:07:17.618Z,96.30
2022-08-24T08:09:45.387Z,96.10
2022-08-24T08:12:12.969Z,96.00
2022-08-24T08:14:41.241Z,95.70
2022-08-24T08:17:10.345Z,95.60
2022-08-24T08:19:39.492Z,95.50
2022-08-24T08:22:28.048Z,95.30
2022-08-24T08:24:54.990Z,95.00
2022-08-24T08:27:25.221Z,94.80
2022-08-24T08:29:55.255Z,94.60
2022-08-24T08:32:24.614Z,94.50
2022-08-24T08:34:55.983Z,94.50
2022-08-24T08:37:27.449Z,94.50
2022-08-24T08:39:57.096Z,94.40
2022-08-24T08:42:50.182Z,94.30
2022-08-24T08:45:35.407Z,94.10
2022-08-24T08:48:26.148Z,93.80
2022-08-24T08:50:58.813Z,93.50
2022-08-24T08:53:56.051Z,93.60
2022-08-24T08:56:35.102Z,93.60
2022-08-24T08:59:38.906Z,93.30
2022-08-24T09:02:25.138Z,93.30
2022-08-24T09:05:30.820Z,93.20
2022-08-24T09:07:57.639Z,93.30
2022-08-24T09:10:41.068Z,93.10
2022-08-24T09:13:22.868Z,92.90
2022-08-24T09:16:16.257Z,92.50
2022-08-24T09:19:06.958Z,92.00
2022-08-24T09:22:03.312Z,92.10
2022-08-24T09:25:00.144Z,92.00
2022-08-24T09:28:05.288Z,91.80
2022-08-24T09:30:48.116Z,91.50
2022-08-24T09:33:26.683Z,91.30
2022-08-24T09:36:16.911Z,91.00
2022-08-24T09:39:08.390Z,90.90
2022-08-24T09:41:59.897Z,90.80
2022-08-24T09:44:45.225Z,90.90
2022-08-24T09:47:40.047Z,90.60
2022-08-24T09:50:36.366Z,90.70
2022-08-24T09:53:31.500Z,90.40
2022-08-24T09:56:11.786Z,89.50
2022-08-24T09:58:57.788Z,90.00
2022-08-24T10:01:31.349Z,89.00
2022-08-24T10:04:22.702Z,88.40
2022-08-24T10:07:17.770Z,88.00
2022-08-24T10:09:53.417Z,88.30
2022-08-24T10:12:56.055Z,87.30
2022-08-24T10:15:52.040Z,86.60
2022-08-24T10:18:35.028Z,87.40
2022-08-24T10:21:25.210Z,86.90
2022-08-24T10:24:30.275Z,85.60
2022-08-24T10:27:21.487Z,85.80
2022-08-24T10:30:26.660Z,84.90
2022-08-24T10:33:13.618Z,83.80
2022-08-24T10:35:55.230Z,83.80
2022-08-24T10:38:49.737Z,84.20
2022-08-24T10:41:27.865Z,84.60
2022-08-24T10:44:29.793Z,84.60
2022-08-24T10:47:06.061Z,84.90
2022-08-24T10:49:35.695Z,84.40
2022-08-24T10:52:05.327Z,85.10
2022-08-24T10:54:37.220Z,85.70
2022-08-24T10:57:23.011Z,85.70
2022-08-24T10:59:59.405Z,85.30
2022-08-24T11:02:34.490Z,84.70
2022-08-24T11:05:08.321Z,85.10
2022-08-24T11:07:53.444Z,84.70
2022-08-24T11:10:32.609Z,84.40
2022-08-24T11:13:39.417Z,82.50
2022-08-24T11:16:06.863Z,80.60
2022-08-24T11:18:49.488Z,81.80
2022-08-24T11:21:40.394Z,81.80
2022-08-24T11:24:18.519Z,81.60
2022-08-24T11:27:05.520Z,80.50
2022-08-24T11:29:54.907Z,78.80
2022-08-24T11:32:44.412Z,77.70
2022-08-24T11:35:33.778Z,77.00
2022-08-24T11:38:08.178Z,77.70
2022-08-24T11:40:40.546Z,76.90
2022-08-24T11:43:20.963Z,77.90
2022-08-24T11:46:11.580Z,75.50
2022-08-24T11:48:45.345Z,74.50
2022-08-24T11:51:25.493Z,74.50
2022-08-24T11:54:30.390Z,76.30
2022-08-24T11:57:29.285Z,75.80
2022-08-24T12:00:04.140Z,74.50
2022-08-24T12:03:00.708Z,75.70
2022-08-24T12:05:46.599Z,73.80
2022-08-24T12:08:36.195Z,73.30
2022-08-24T12:11:23.674Z,73.00
2022-08-24T12:14:11.923Z,73.30
2022-08-24T12:16:54.078Z,73.00
2022-08-24T12:19:27.027Z,74.00
2022-08-24T12:21:59.546Z,73.30
2022-08-24T12:24:35.853Z,74.50
2022-08-24T12:27:13.271Z,73.70
2022-08-24T12:29:51.665Z,74.90
2022-08-24T12:32:37.664Z,76.50
2022-08-24T12:35:07.107Z,76.60
2022-08-24T12:37:43.717Z,76.00
2022-08-24T12:40:32.052Z,77.30
2022-08-24T12:43:27.407Z,78.30
2022-08-24T12:46:02.560Z,78.00
2022-08-24T12:48:54.925Z,78.70
2022-08-24T12:51:42.795Z,78.90
2022-08-24T12:54:43.643Z,78.50
2022-08-24T12:57:31.109Z,78.10
2022-08-24T13:00:14.893Z,78.80
2022-08-24T13:02:55.003Z,78.30
2022-08-24T13:05:22.408Z,78.50
2022-08-24T13:07:51.829Z,78.40
2022-08-24T13:10:26.959Z,76.70
2022-08-24T13:13:19.666Z,75.90
2022-08-24T13:15:57.164Z,76.00
2022-08-24T13:18:45.787Z,78.60
2022-08-24T13:21:35.064Z,79.10
2022-08-24T13:24:40.918Z,78.40
2022-08-24T13:27:16.820Z,78.50
2022-08-24T13:29:51.897Z,79.40
2022-08-24T13:32:31.522Z,79.70
2022-08-24T13:34:59.495Z,80.30
2022-08-24T13:37:28.766Z,81.10
2022-08-24T13:40:16.531Z,81.80
2022-08-24T13:43:02.926Z,82.00
2022-08-24T13:45:46.261Z,81.90
2022-08-24T13:48:42.192Z,82.30
2022-08-24T13:51:20.833Z,82.40
2022-08-24T13:54:22.457Z,83.10
2022-08-24T13:57:09.367Z,83.10
2022-08-24T13:59:56.500Z,83.20
2022-08-24T14:02:44.188Z,83.40
2022-08-24T14:05:30.941Z,83.50
2022-08-24T14:08:10.404Z,84.70
2022-08-24T14:10:42.561Z,84.30
2022-08-24T14:14:13.131Z,84.80
2022-08-24T14:17:07.321Z,84.80
2022-08-24T14:23:08.328Z,83.50
2022-08-24T14:28:44.177Z,83.10
2022-08-24T14:34:21.707Z,83.30
2022-08-24T14:37:11.479Z,83.20
2022-08-24T14:39:52.589Z,82.60
2022-08-24T14:42:33.064Z,83.10
2022-08-24T14:45:02.952Z,83.90
2022-08-24T14:48:02.671Z,83.30
2022-08-24T14:50:52.420Z,83.60
2022-08-24T14:53:40.336Z,83.20
2022-08-24T14:56:09.980Z,82.30
2022-08-24T14:58:51.979Z,82.40
2022-08-24T15:01:34.392Z,82.20
2022-08-24T15:04:07.274Z,81.80
2022-08-24T15:06:48.494Z,81.90
2022-08-24T15:09:35.626Z,82.60
2022-08-24T15:12:33.985Z,83.50
2022-08-24T15:15:11.478Z,84.40
2022-08-24T15:18:06.494Z,83.20
2022-08-24T15:20:55.852Z,81.10
2022-08-24T15:23:27.818Z,80.70
2022-08-24T15:26:29.539Z,80.20
2022-08-24T15:28:57.133Z,81.10
2022-08-24T15:31:29.225Z,80.60
2022-08-24T15:34:00.888Z,81.50
2022-08-24T15:36:33.977Z,79.80
2022-08-24T15:39:05.804Z,81.00
2022-08-24T15:41:36.586Z,80.10
2022-08-24T15:44:26.606Z,80.40
2022-08-24T15:47:00.480Z,80.40
2022-08-24T15:49:34.381Z,81.60
2022-08-24T15:52:06.177Z,80.60
2022-08-24T15:54:56.097Z,79.70
2022-08-24T15:57:29.594Z,79.20
2022-08-24T16:00:44.692Z,80.10
2022-08-24T16:03:22.294Z,80.70
2022-08-24T16:05:56.089Z,81.00
2022-08-24T16:08:25.662Z,81.80
2022-08-24T16:10:56.507Z,81.40
2022-08-24T16:13:33.295Z,81.30
2022-08-24T16:16:08.929Z,81.50
2022-08-24T16:18:58.167Z,81.70
2022-08-24T16:21:41.664Z,81.20
2022-08-24T16:24:11.330Z,82.20
2022-08-24T16:26:47.251Z,81.80
2022-08-24T16:29:36.292Z,81.60
2022-08-24T16:32:21.256Z,81.90
2022-08-24T16:35:19.194Z,82.50
2022-08-24T16:37:46.058Z,82.90
2022-08-24T16:40:14.171Z,83.60
2022-08-24T16:42:43.230Z,83.70
2022-08-24T16:45:12.484Z,83.80
2022-08-24T16:47:39.256Z,84.10
2022-08-24T16:50:09.403Z,85.00
2022-08-24T16:52:36.242Z,85.10
2022-08-24T16:55:05.625Z,85.50
2022-08-24T16:57:37.666Z,85.90
2022-08-24T17:00:14.530Z,86.00
2022-08-24T17:02:41.996Z,86.50
2022-08-24T17:05:11.588Z,86.60
2022-08-24T17:07:38.550Z,86.60
2022-08-24T17:10:09.806Z,86.60
2022-08-24T17:12:37.926Z,87.00
2022-08-24T17:15:07.376Z,87.40
2022-08-24T17:17:34.813Z,87.20
2022-08-24T17:20:02.089Z,87.40
2022-08-24T17:22:31.439Z,87.30
2022-08-24T17:25:00.953Z,87.40
2022-08-24T17:27:32.354Z,88.10
2022-08-24T17:30:00.747Z,87.50
2022-08-24T17:32:27.908Z,87.90
2022-08-24T17:34:58.052Z,88.30
2022-08-24T17:37:25.334Z,88.70
2022-08-24T17:39:55.357Z,88.60
2022-08-24T17:42:49.023Z,88.60
2022-08-24T17:45:13.046Z,89.10
2022-08-24T17:47:41.393Z,89.30
2022-08-24T17:50:10.343Z,89.40
2022-08-24T17:52:38.438Z,89.40
2022-08-24T17:55:07.927Z,89.80
2022-08-24T17:57:35.203Z,89.90
2022-08-24T18:00:02.272Z,89.90
2022-08-24T18:02:29.530Z,90.10
2022-08-24T18:04:59.941Z,90.10
2022-08-24T18:07:42.698Z,90.10
2022-08-24T18:10:19.716Z,90.20
2022-08-24T18:12:46.647Z,90.40
2022-08-24T18:15:14.440Z,90.40
2022-08-24T18:17:46.814Z,90.40
2022-08-24T18:20:16.589Z,90.40
2022-08-24T18:22:47.597Z,90.50
2022-08-24T18:25:23.199Z,90.50
2022-08-24T18:27:53.828Z,90.60
2022-08-24T18:30:30.579Z,90.60
2022-08-24T18:32:59.644Z,90.60
2022-08-24T18:35:30.803Z,90.70
2022-08-24T18:37:57.689Z,90.80
2022-08-24T18:40:26.788Z,90.80
2022-08-24T18:42:59.921Z,90.90
2022-08-24T18:45:31.432Z,91.00
2022-08-24T18:47:58.642Z,91.10
2022-08-24T18:50:29.038Z,91.20
2022-08-24T18:52:59.074Z,91.40
2022-08-24T18:55:28.547Z,91.50
2022-08-24T18:57:58.198Z,91.60
2022-08-24T19:00:25.594Z,91.70
2022-08-24T19:03:01.759Z,91.80
2022-08-24T19:05:28.997Z,91.90
2022-08-24T19:07:57.041Z,92.00
2022-08-24T19:10:26.955Z,92.40
2022-08-24T19:13:00.177Z,92.20
2022-08-24T19:15:39.252Z,92.30
2022-08-24T19:18:11.318Z,92.40
2022-08-24T19:20:49.091Z,92.50
2022-08-24T19:23:25.445Z,92.70
2022-08-24T19:25:55.371Z,92.80
2022-08-24T19:28:26.755Z,93.00
2022-08-24T19:31:01.720Z,93.20
2022-08-24T19:33:34.459Z,93.40
2022-08-24T19:36:04.850Z,93.50
2022-08-24T19:38:31.752Z,93.70
2022-08-24T19:40:59.617Z,93.70
2022-08-24T19:43:28.801Z,93.80
2022-08-24T19:46:03.339Z,93.90
2022-08-24T19:48:39.155Z,94.00
2022-08-24T19:51:12.050Z,94.10
2022-08-24T19:53:39.348Z,94.20
2022-08-24T19:56:12.638Z,94.30
2022-08-24T19:58:47.077Z,94.40
2022-08-24T20:01:23.666Z,94.60
2022-08-24T20:03:51.627Z,94.70
2022-08-24T20:06:23.649Z,94.80
2022-08-24T20:08:52.232Z,94.90
2022-08-24T20:11:20.219Z,95.00
2022-08-24T20:13:52.747Z,95.10
2022-08-24T20:16:21.111Z,95.20
2022-08-24T20:18:48.504Z,95.30
2022-08-24T20:21:16.186Z,95.40
2022-08-24T20:23:44.910Z,95.50
2022-08-24T20:26:15.028Z,95.60
2022-08-24T20:28:46.667Z,95.80
2022-08-24T20:31:17.199Z,95.90
2022-08-24T20:33:44.123Z,95.90
2022-08-24T20:36:41.170Z,96.00
2022-08-24T20:39:11.029Z,96.10
2022-08-24T20:41:40.837Z,96.10
2022-08-24T20:44:09.272Z,96.20
2022-08-24T20:46:37.012Z,96.20
2022-08-24T20:49:07.005Z,96.30
2022-08-24T20:51:34.366Z,96.20
2022-08-24T20:54:08.668Z,96.30
2022-08-24T20:56:37.917Z,96.30
2022-08-24T20:59:11.423Z,96.40
2022-08-24T21:01:41.452Z,96.40
2022-08-24T21:04:09.507Z,96.40
2022-08-24T21:06:40.336Z,96.50
2022-08-24T21:09:07.800Z,96.50
2022-08-24T21:11:45.126Z,96.50
2022-08-24T21:14:12.832Z,96.50
2022-08-24T21:16:46.291Z,96.50
2022-08-24T21:19:17.678Z,96.60
2022-08-24T21:21:46.842Z,96.70
2022-08-24T21:24:15.471Z,96.70
2022-08-24T21:26:42.407Z,96.80
2022-08-24T21:29:10.745Z,96.80
2022-08-24T21:31:38.262Z,96.90
2022-08-24T21:34:23.624Z,97.00
2022-08-24T21:36:52.439Z,97.10
2022-08-24T21:39:22.544Z,97.10
2022-08-24T21:41:53.433Z,97.30
2022-08-24T21:44:22.567Z,97.30
2022-08-24T21:46:53.317Z,97.40
2022-08-24T21:49:23.146Z,97.40
2022-08-24T21:51:55.661Z,97.40
2022-08-24T21:54:24.680Z,97.50
2022-08-24T21:56:51.485Z,97.50
2022-08-24T21:59:18.723Z,97.60
2022-08-24T22:01:46.271Z,97.60
2022-08-24T22:04:18.253Z,97.70
2022-08-24T22:06:50.215Z,97.80
2022-08-24T22:09:20.173Z,97.80
2022-08-24T22:11:47.268Z,97.90
2022-08-24T22:14:16.669Z,97.90
2022-08-24T22:16:45.569Z,98.10
2022-08-24T22:19:14.253Z,98.10
2022-08-24T22:21:47.866Z,98.20
2022-08-24T22:24:18.415Z,98.20
2022-08-24T22:26:45.359Z,98.20
2022-08-24T22:29:12.455Z,98.30
2022-08-24T22:31:42.448Z,98.40
2022-08-24T22:34:19.502Z,98.50
2022-08-24T22:36:48.402Z,98.60
2022-08-24T22:39:15.399Z,98.80
2022-08-24T22:41:42.477Z,98.90
2022-08-24T22:44:21.826Z,99.00
2022-08-24T22:46:56.321Z,99.00
2022-08-24T22:49:26.847Z,99.10
2022-08-24T22:51:53.681Z,99.20
2022-08-24T22:54:24.114Z,99.20
2022-08-24T22:56:54.881Z,99.30
2022-08-24T22:59:28.589Z,99.40
2022-08-24T23:01:57.564Z,99.30
2022-08-24T23:04:31.194Z,99.30
2022-08-24T23:06:58.472Z,99.40
2022-08-24T23:09:25.572Z,99.50
2022-08-24T23:11:52.647Z,99.60
2022-08-24T23:14:23.308Z,99.60
2022-08-24T23:16:50.715Z,99.70
2022-08-24T23:19:38.295Z,99.80
2022-08-24T23:22:06.457Z,99.90
2022-08-24T23:24:36.097Z,99.90
2022-08-24T23:27:04.422Z,99.90
2022-08-24T23:29:32.639Z,99.90
2022-08-24T23:32:04.927Z,99.90
2022-08-24T23:34:32.656Z,99.90
2022-08-24T23:36:59.479Z,99.90
2022-08-24T23:39:28.945Z,99.90
2022-08-24T23:41:55.933Z,99.90
2022-08-24T23:44:30.021Z,99.90
2022-08-24T23:46:58.214Z,99.90
2022-08-24T23:49:26.591Z,99.90
2022-08-24T23:51:53.866Z,99.90
2022-08-24T23:54:22.243Z,99.90
2022-08-24T23:56:50.438Z,99.90
2022-08-24T23:59:29.440Z,99.90
